sensor_id;sensor_type;location;lat;lon;timestamp;temperature;humidity
7894;DHT22;51343;51.396;6.656;2023-04-03T00:00:09;0.30;97.50
7894;DHT22;51343;51.396;6.656;2023-04-03T00:02:36;0.20;99.90
7894;DHT22;51343;51.396;6.656;2023-04-03T00:05:07;0.20;99.90
7894;DHT22;51343;51.396;6.656;2023-04-03T00:07:34;0.20;99.90
7894;DHT22;51343;51.396;6.656;2023-04-03T00:10:08;0.20;99.90
7894;DHT22;51343;51.396;6.656;2023-04-03T00:12:37;0.20;99.90
7894;DHT22;51343;51.396;6.656;2023-04-03T00:15:06;0.20;99.90
7894;DHT22;51343;51.396;6.656;2023-04-03T00:17:36;0.20;99.90
7894;DHT22;51343;51.396;6.656;2023-04-03T00:22:34;0.10;99.90
7894;DHT22;51343;51.396;6.656;2023-04-03T00:25:02;0.10;99.90
7894;DHT22;51343;51.396;6.656;2023-04-03T00:27:43;0.10;99.90
7894;DHT22;51343;51.396;6.656;2023-04-03T00:30:13;0.10;99.90
7894;DHT22;51343;51.396;6.656;2023-04-03T00:32:41;0.00;99.90
7894;DHT22;51343;51.396;6.656;2023-04-03T00:35:10;0.00;48.80
7894;DHT22;51343;51.396;6.656;2023-04-03T00:37:41;0.00;97.00
7894;DHT22;51343;51.396;6.656;2023-04-03T00:40:10;0.00;71.80
7894;DHT22;51343;51.396;6.656;2023-04-03T00:42:39;-0.10;21.10
7894;DHT22;51343;51.396;6.656;2023-04-03T00:45:26;-0.10;1.00
7894;DHT22;51343;51.396;6.656;2023-04-03T00:47:54;0.00;36.00
7894;DHT22;51343;51.396;6.656;2023-04-03T00:50:28;0.00;99.90
7894;DHT22;51343;51.396;6.656;2023-04-03T00:53:02;-0.10;99.90
7894;DHT22;51343;51.396;6.656;2023-04-03T00:55:43;-0.10;49.10
7894;DHT22;51343;51.396;6.656;2023-04-03T00:58:15;-0.10;29.60
7894;DHT22;51343;51.396;6.656;2023-04-03T01:00:48;-0.10;25.40
7894;DHT22;51343;51.396;6.656;2023-04-03T01:03:26;-0.10;3.00
7894;DHT22;51343;51.396;6.656;2023-04-03T01:05:59;-0.10;1.00
7894;DHT22;51343;51.396;6.656;2023-04-03T01:08:34;-0.10;14.60
7894;DHT22;51343;51.396;6.656;2023-04-03T01:11:04;-0.20;59.00
7894;DHT22;51343;51.396;6.656;2023-04-03T01:13:36;-0.20;87.50
7894;DHT22;51343;51.396;6.656;2023-04-03T01:16:19;-0.20;71.50
7894;DHT22;51343;51.396;6.656;2023-04-03T01:18:55;-0.10;59.30
7894;DHT22;51343;51.396;6.656;2023-04-03T01:24:20;-0.20;99.90
7894;DHT22;51343;51.396;6.656;2023-04-03T01:26:53;-0.30;99.90
7894;DHT22;51343;51.396;6.656;2023-04-03T01:29:24;-0.30;99.90
7894;DHT22;51343;51.396;6.656;2023-04-03T01:32:00;-0.30;99.90
7894;DHT22;51343;51.396;6.656;2023-04-03T01:34:29;-0.30;99.90
7894;DHT22;51343;51.396;6.656;2023-04-03T01:36:56;-0.30;99.90
7894;DHT22;51343;51.396;6.656;2023-04-03T01:39:29;-0.30;99.90
7894;DHT22;51343;51.396;6.656;2023-04-03T01:41:58;-0.30;99.90
7894;DHT22;51343;51.396;6.656;2023-04-03T01:44:30;-0.40;99.90
7894;DHT22;51343;51.396;6.656;2023-04-03T01:47:02;-0.30;96.20
7894;DHT22;51343;51.396;6.656;2023-04-03T01:49:36;-0.30;99.90
7894;DHT22;51343;51.396;6.656;2023-04-03T01:52:05;-0.30;99.90
7894;DHT22;51343;51.396;6.656;2023-04-03T01:54:33;-0.30;99.90
7894;DHT22;51343;51.396;6.656;2023-04-03T01:57:02;-0.30;99.90
7894;DHT22;51343;51.396;6.656;2023-04-03T01:59:32;-0.30;99.90
7894;DHT22;51343;51.396;6.656;2023-04-03T02:02:05;-0.20;99.90
7894;DHT22;51343;51.396;6.656;2023-04-03T02:04:37;0.00;99.90
7894;DHT22;51343;51.396;6.656;2023-04-03T02:07:07;0.10;99.90
7894;DHT22;51343;51.396;6.656;2023-04-03T02:09:39;0.10;99.90
7894;DHT22;51343;51.396;6.656;2023-04-03T02:12:13;0.20;99.90
7894;DHT22;51343;51.396;6.656;2023-04-03T02:14:41;0.20;99.90
7894;DHT22;51343;51.396;6.656;2023-04-03T02:17:22;0.30;99.90
7894;DHT22;51343;51.396;6.656;2023-04-03T02:19:51;0.30;99.90
7894;DHT22;51343;51.396;6.656;2023-04-03T02:22:19;0.20;99.90
7894;DHT22;51343;51.396;6.656;2023-04-03T02:24:47;0.30;99.90
7894;DHT22;51343;51.396;6.656;2023-04-03T02:27:23;0.30;99.90
7894;DHT22;51343;51.396;6.656;2023-04-03T02:29:51;0.20;99.90
7894;DHT22;51343;51.396;6.656;2023-04-03T02:32:19;0.30;99.90
7894;DHT22;51343;51.396;6.656;2023-04-03T02:34:53;0.40;99.90
7894;DHT22;51343;51.396;6.656;2023-04-03T02:37:21;0.50;99.90
7894;DHT22;51343;51.396;6.656;2023-04-03T02:39:51;0.50;99.90
7894;DHT22;51343;51.396;6.656;2023-04-03T02:42:21;0.60;99.90
7894;DHT22;51343;51.396;6.656;2023-04-03T02:44:49;0.70;99.90
7894;DHT22;51343;51.396;6.656;2023-04-03T02:47:17;0.80;99.90
7894;DHT22;51343;51.396;6.656;2023-04-03T02:49:46;0.80;99.90
7894;DHT22;51343;51.396;6.656;2023-04-03T02:52:15;0.80;99.90
7894;DHT22;51343;51.396;6.656;2023-04-03T02:54:43;0.80;99.90
7894;DHT22;51343;51.396;6.656;2023-04-03T02:57:20;0.70;99.90
7894;DHT22;51343;51.396;6.656;2023-04-03T02:59:48;0.70;99.90
7894;DHT22;51343;51.396;6.656;2023-04-03T03:02:16;0.70;99.90
7894;DHT22;51343;51.396;6.656;2023-04-03T03:04:45;0.70;99.90
7894;DHT22;51343;51.396;6.656;2023-04-03T03:07:14;0.80;99.90
7894;DHT22;51343;51.396;6.656;2023-04-03T03:09:44;0.80;99.90
7894;DHT22;51343;51.396;6.656;2023-04-03T03:12:15;0.70;99.90
7894;DHT22;51343;51.396;6.656;2023-04-03T03:14:47;0.80;99.90
7894;DHT22;51343;51.396;6.656;2023-04-03T03:17:14;0.80;83.30
7894;DHT22;51343;51.396;6.656;2023-04-03T03:19:42;0.70;64.40
7894;DHT22;51343;51.396;6.656;2023-04-03T03:22:11;0.70;21.00
7894;DHT22;51343;51.396;6.656;2023-04-03T03:24:41;0.70;1.00
7894;DHT22;51343;51.396;6.656;2023-04-03T03:27:13;0.70;1.00
7894;DHT22;51343;51.396;6.656;2023-04-03T03:29:41;0.70;1.00
7894;DHT22;51343;51.396;6.656;2023-04-03T03:32:09;0.80;1.00
7894;DHT22;51343;51.396;6.656;2023-04-03T03:34:38;0.90;1.00
7894;DHT22;51343;51.396;6.656;2023-04-03T03:37:06;1.00;1.00
7894;DHT22;51343;51.396;6.656;2023-04-03T03:39:32;1.10;1.00
7894;DHT22;51343;51.396;6.656;2023-04-03T03:42:01;1.20;1.00
7894;DHT22;51343;51.396;6.656;2023-04-03T03:44:30;1.20;99.90
7894;DHT22;51343;51.396;6.656;2023-04-03T03:46:57;1.30;75.50
7894;DHT22;51343;51.396;6.656;2023-04-03T03:49:25;1.30;1.00
7894;DHT22;51343;51.396;6.656;2023-04-03T03:51:53;1.30;99.90
7894;DHT22;51343;51.396;6.656;2023-04-03T03:54:20;1.30;3.50
7894;DHT22;51343;51.396;6.656;2023-04-03T03:56:47;1.40;81.20
7894;DHT22;51343;51.396;6.656;2023-04-03T03:59:17;1.40;87.00
7894;DHT22;51343;51.396;6.656;2023-04-03T04:01:44;1.50;1.00
7894;DHT22;51343;51.396;6.656;2023-04-03T04:04:11;1.50;76.40
7894;DHT22;51343;51.396;6.656;2023-04-03T04:06:38;1.50;9.80
7894;DHT22;51343;51.396;6.656;2023-04-03T04:09:06;1.50;1.00
7894;DHT22;51343;51.396;6.656;2023-04-03T04:11:34;1.50;1.00
7894;DHT22;51343;51.396;6.656;2023-04-03T04:14:01;1.40;1.00
7894;DHT22;51343;51.396;6.656;2023-04-03T04:16:29;1.50;99.90
7894;DHT22;51343;51.396;6.656;2023-04-03T04:18:56;1.40;1.00
7894;DHT22;51343;51.396;6.656;2023-04-03T04:21:23;1.40;1.00
7894;DHT22;51343;51.396;6.656;2023-04-03T04:23:51;1.40;99.90
7894;DHT22;51343;51.396;6.656;2023-04-03T04:26:18;1.40;1.00
7894;DHT22;51343;51.396;6.656;2023-04-03T04:28:45;1.40;56.10
7894;DHT22;51343;51.396;6.656;2023-04-03T04:31:12;1.40;1.00
7894;DHT22;51343;51.396;6.656;2023-04-03T04:33:43;1.40;1.00
7894;DHT22;51343;51.396;6.656;2023-04-03T04:36:10;1.30;1.00
7894;DHT22;51343;51.396;6.656;2023-04-03T04:38:37;1.30;1.00
7894;DHT22;51343;51.396;6.656;2023-04-03T04:41:04;1.40;1.00
7894;DHT22;51343;51.396;6.656;2023-04-03T04:43:33;1.40;1.00
7894;DHT22;51343;51.396;6.656;2023-04-03T04:46:02;1.40;1.00
7894;DHT22;51343;51.396;6.656;2023-04-03T04:48:29;1.40;1.00
7894;DHT22;51343;51.396;6.656;2023-04-03T04:50:59;1.40;1.00
7894;DHT22;51343;51.396;6.656;2023-04-03T04:53:26;1.40;1.00
7894;DHT22;51343;51.396;6.656;2023-04-03T04:55:53;1.40;1.00
7894;DHT22;51343;51.396;6.656;2023-04-03T04:58:20;1.40;1.00
7894;DHT22;51343;51.396;6.656;2023-04-03T05:00:47;1.40;1.00
7894;DHT22;51343;51.396;6.656;2023-04-03T05:03:14;1.40;1.00
7894;DHT22;51343;51.396;6.656;2023-04-03T05:05:43;1.30;1.00
7894;DHT22;51343;51.396;6.656;2023-04-03T05:08:13;1.40;1.00
7894;DHT22;51343;51.396;6.656;2023-04-03T05:10:40;1.40;1.00
7894;DHT22;51343;51.396;6.656;2023-04-03T05:13:08;1.40;1.00
7894;DHT22;51343;51.396;6.656;2023-04-03T05:15:35;1.40;1.00
7894;DHT22;51343;51.396;6.656;2023-04-03T05:18:02;1.40;1.00
7894;DHT22;51343;51.396;6.656;2023-04-03T05:20:29;1.40;1.00
7894;DHT22;51343;51.396;6.656;2023-04-03T05:22:56;1.30;1.00
7894;DHT22;51343;51.396;6.656;2023-04-03T05:25:24;1.40;1.00
7894;DHT22;51343;51.396;6.656;2023-04-03T05:27:51;1.40;1.00
7894;DHT22;51343;51.396;6.656;2023-04-03T05:30:18;1.40;1.00
7894;DHT22;51343;51.396;6.656;2023-04-03T05:32:46;1.40;1.00
7894;DHT22;51343;51.396;6.656;2023-04-03T05:35:13;1.40;1.00
7894;DHT22;51343;51.396;6.656;2023-04-03T05:37:40;1.40;1.00
7894;DHT22;51343;51.396;6.656;2023-04-03T05:40:07;1.40;1.00
7894;DHT22;51343;51.396;6.656;2023-04-03T05:42:36;1.40;1.00
7894;DHT22;51343;51.396;6.656;2023-04-03T05:45:03;1.50;55.70
7894;DHT22;51343;51.396;6.656;2023-04-03T05:47:32;1.50;1.00
7894;DHT22;51343;51.396;6.656;2023-04-03T05:50:10;1.40;1.00
7894;DHT22;51343;51.396;6.656;2023-04-03T05:52:45;1.50;1.00
7894;DHT22;51343;51.396;6.656;2023-04-03T05:55:15;1.50;99.90
7894;DHT22;51343;51.396;6.656;2023-04-03T05:57:45;1.50;99.90
7894;DHT22;51343;51.396;6.656;2023-04-03T06:00:12;1.60;99.90
7894;DHT22;51343;51.396;6.656;2023-04-03T06:02:40;1.60;99.90
7894;DHT22;51343;51.396;6.656;2023-04-03T06:05:08;1.60;99.90
7894;DHT22;51343;51.396;6.656;2023-04-03T06:07:37;1.60;1.00
7894;DHT22;51343;51.396;6.656;2023-04-03T06:10:06;1.70;1.00
7894;DHT22;51343;51.396;6.656;2023-04-03T06:13:01;1.80;99.90
7894;DHT22;51343;51.396;6.656;2023-04-03T06:15:45;1.80;1.00
7894;DHT22;51343;51.396;6.656;2023-04-03T06:18:20;1.90;99.90
7894;DHT22;51343;51.396;6.656;2023-04-03T06:21:06;1.90;1.00
7894;DHT22;51343;51.396;6.656;2023-04-03T06:23:34;2.00;99.90
7894;DHT22;51343;51.396;6.656;2023-04-03T06:28:41;2.00;1.00
7894;DHT22;51343;51.396;6.656;2023-04-03T06:31:08;2.00;1.00
7894;DHT22;51343;51.396;6.656;2023-04-03T06:33:43;2.00;1.00
7894;DHT22;51343;51.396;6.656;2023-04-03T06:36:25;2.10;99.90
7894;DHT22;51343;51.396;6.656;2023-04-03T06:38:57;2.00;1.00
7894;DHT22;51343;51.396;6.656;2023-04-03T06:43:59;2.10;99.90
7894;DHT22;51343;51.396;6.656;2023-04-03T06:46:44;2.20;1.00
7894;DHT22;51343;51.396;6.656;2023-04-03T06:49:12;2.20;99.90
7894;DHT22;51343;51.396;6.656;2023-04-03T06:51:41;2.20;57.70
7894;DHT22;51343;51.396;6.656;2023-04-03T06:54:11;2.30;1.00
7894;DHT22;51343;51.396;6.656;2023-04-03T06:56:42;2.40;61.70
7894;DHT22;51343;51.396;6.656;2023-04-03T06:59:21;2.40;1.00
7894;DHT22;51343;51.396;6.656;2023-04-03T07:01:50;2.40;59.50
7894;DHT22;51343;51.396;6.656;2023-04-03T07:04:17;2.50;1.00
7894;DHT22;51343;51.396;6.656;2023-04-03T07:06:53;2.50;1.00
7894;DHT22;51343;51.396;6.656;2023-04-03T07:09:31;2.60;99.90
7894;DHT22;51343;51.396;6.656;2023-04-03T07:11:58;2.80;99.90
7894;DHT22;51343;51.396;6.656;2023-04-03T07:22:15;2.90;1.00
7894;DHT22;51343;51.396;6.656;2023-04-03T07:51:40;3.20;1.00
7894;DHT22;51343;51.396;6.656;2023-04-03T07:54:13;3.20;1.00
7894;DHT22;51343;51.396;6.656;2023-04-03T07:56:44;3.30;1.00
7894;DHT22;51343;51.396;6.656;2023-04-03T08:04:22;3.40;1.00
7894;DHT22;51343;51.396;6.656;2023-04-03T08:06:50;3.50;1.00
7894;DHT22;51343;51.396;6.656;2023-04-03T08:09:17;3.50;1.00
7894;DHT22;51343;51.396;6.656;2023-04-03T08:14:30;3.70;1.00
7894;DHT22;51343;51.396;6.656;2023-04-03T08:16:57;3.70;1.00
7894;DHT22;51343;51.396;6.656;2023-04-03T08:19:25;3.80;1.00
7894;DHT22;51343;51.396;6.656;2023-04-03T08:21:54;3.80;1.00
7894;DHT22;51343;51.396;6.656;2023-04-03T08:24:25;3.90;1.00
7894;DHT22;51343;51.396;6.656;2023-04-03T08:32:07;4.10;1.00
7894;DHT22;51343;51.396;6.656;2023-04-03T08:34:41;4.20;1.00
7894;DHT22;51343;51.396;6.656;2023-04-03T08:37:10;4.30;1.00
7894;DHT22;51343;51.396;6.656;2023-04-03T08:39:37;4.40;1.00
7894;DHT22;51343;51.396;6.656;2023-04-03T08:42:05;4.40;99.90
7894;DHT22;51343;51.396;6.656;2023-04-03T08:44:37;4.50;1.00
7894;DHT22;51343;51.396;6.656;2023-04-03T08:49:39;4.60;1.00
7894;DHT22;51343;51.396;6.656;2023-04-03T08:52:17;4.60;1.00
7894;DHT22;51343;51.396;6.656;2023-04-03T08:57:24;4.80;1.00
7894;DHT22;51343;51.396;6.656;2023-04-03T09:02:41;5.00;70.80
7894;DHT22;51343;51.396;6.656;2023-04-03T09:26:02;5.70;99.90
7894;DHT22;51343;51.396;6.656;2023-04-03T09:49:24;6.40;99.90
7894;DHT22;51343;51.396;6.656;2023-04-03T09:57:06;6.90;99.90
7894;DHT22;51343;51.396;6.656;2023-04-03T10:30:44;8.60;1.00
7894;DHT22;51343;51.396;6.656;2023-04-03T10:33:33;8.90;1.00
7894;DHT22;51343;51.396;6.656;2023-04-03T10:41:04;8.90;1.00
7894;DHT22;51343;51.396;6.656;2023-04-03T11:04:34;9.30;99.90
7894;DHT22;51343;51.396;6.656;2023-04-03T11:07:04;10.70;1.00
7894;DHT22;51343;51.396;6.656;2023-04-03T11:09:39;10.80;1.00
7894;DHT22;51343;51.396;6.656;2023-04-03T11:12:09;10.90;1.00
7894;DHT22;51343;51.396;6.656;2023-04-03T11:14:43;11.30;1.00
7894;DHT22;51343;51.396;6.656;2023-04-03T11:17:37;11.70;1.00
7894;DHT22;51343;51.396;6.656;2023-04-03T11:20:10;11.80;1.00
7894;DHT22;51343;51.396;6.656;2023-04-03T11:22:43;12.10;1.00
7894;DHT22;51343;51.396;6.656;2023-04-03T11:25:19;12.30;1.00
7894;DHT22;51343;51.396;6.656;2023-04-03T11:27:49;12.80;1.00
7894;DHT22;51343;51.396;6.656;2023-04-03T11:30:19;12.70;1.00
7894;DHT22;51343;51.396;6.656;2023-04-03T11:44:32;12.80;1.00
7894;DHT22;51343;51.396;6.656;2023-04-03T11:46:59;13.30;1.00
7894;DHT22;51343;51.396;6.656;2023-04-03T12:09:23;14.00;1.00
7894;DHT22;51343;51.396;6.656;2023-04-03T12:11:56;14.20;99.90
7894;DHT22;51343;51.396;6.656;2023-04-03T12:14:28;14.00;1.00
7894;DHT22;51343;51.396;6.656;2023-04-03T12:16:56;14.20;1.00
7894;DHT22;51343;51.396;6.656;2023-04-03T12:19:39;14.00;1.00
7894;DHT22;51343;51.396;6.656;2023-04-03T12:22:15;13.40;1.00
7894;DHT22;51343;51.396;6.656;2023-04-03T12:27:29;13.30;1.00
7894;DHT22;51343;51.396;6.656;2023-04-03T12:30:07;13.00;1.00
7894;DHT22;51343;51.396;6.656;2023-04-03T12:32:46;13.70;1.00
7894;DHT22;51343;51.396;6.656;2023-04-03T12:35:20;13.70;1.00
7894;DHT22;51343;51.396;6.656;2023-04-03T12:38:06;13.40;1.00
7894;DHT22;51343;51.396;6.656;2023-04-03T12:40:44;13.40;1.00
7894;DHT22;51343;51.396;6.656;2023-04-03T12:43:20;13.80;1.00
7894;DHT22;51343;51.396;6.656;2023-04-03T12:45:56;14.00;1.00
7894;DHT22;51343;51.396;6.656;2023-04-03T12:48:29;14.00;1.00
7894;DHT22;51343;51.396;6.656;2023-04-03T12:50:58;14.10;1.00
7894;DHT22;51343;51.396;6.656;2023-04-03T12:53:26;13.90;1.00
7894;DHT22;51343;51.396;6.656;2023-04-03T12:55:57;14.10;1.00
7894;DHT22;51343;51.396;6.656;2023-04-03T12:58:45;14.40;1.00
7894;DHT22;51343;51.396;6.656;2023-04-03T13:01:14;14.80;1.00
7894;DHT22;51343;51.396;6.656;2023-04-03T13:03:44;15.00;1.00
7894;DHT22;51343;51.396;6.656;2023-04-03T13:06:13;15.30;1.00
7894;DHT22;51343;51.396;6.656;2023-04-03T13:08:47;15.00;1.00
7894;DHT22;51343;51.396;6.656;2023-04-03T13:11:15;15.20;1.00
7894;DHT22;51343;51.396;6.656;2023-04-03T13:13:54;14.90;1.00
7894;DHT22;51343;51.396;6.656;2023-04-03T13:16:21;15.00;1.00
7894;DHT22;51343;51.396;6.656;2023-04-03T13:18:52;15.20;1.00
7894;DHT22;51343;51.396;6.656;2023-04-03T13:27:02;15.40;1.00
7894;DHT22;51343;51.396;6.656;2023-04-03T13:29:37;15.70;1.00
7894;DHT22;51343;51.396;6.656;2023-04-03T13:32:04;15.50;1.00
7894;DHT22;51343;51.396;6.656;2023-04-03T13:34:35;15.60;1.00
7894;DHT22;51343;51.396;6.656;2023-04-03T13:37:03;15.90;1.00
7894;DHT22;51343;51.396;6.656;2023-04-03T13:39:31;15.90;1.00
7894;DHT22;51343;51.396;6.656;2023-04-03T13:41:59;15.00;1.00
7894;DHT22;51343;51.396;6.656;2023-04-03T13:44:30;14.90;1.00
7894;DHT22;51343;51.396;6.656;2023-04-03T13:46:59;15.30;1.00
7894;DHT22;51343;51.396;6.656;2023-04-03T13:49:31;15.20;1.00
7894;DHT22;51343;51.396;6.656;2023-04-03T13:51:58;15.00;1.00
7894;DHT22;51343;51.396;6.656;2023-04-03T13:54:31;15.00;1.00
7894;DHT22;51343;51.396;6.656;2023-04-03T13:57:14;15.40;1.00
7894;DHT22;51343;51.396;6.656;2023-04-03T13:59:43;15.40;1.00
7894;DHT22;51343;51.396;6.656;2023-04-03T14:02:31;15.30;1.00
7894;DHT22;51343;51.396;6.656;2023-04-03T14:05:08;14.80;1.00
7894;DHT22;51343;51.396;6.656;2023-04-03T14:07:47;14.60;1.00
7894;DHT22;51343;51.396;6.656;2023-04-03T14:10:15;14.20;1.00
7894;DHT22;51343;51.396;6.656;2023-04-03T14:12:44;14.10;1.00
7894;DHT22;51343;51.396;6.656;2023-04-03T14:15:22;14.20;1.00
7894;DHT22;51343;51.396;6.656;2023-04-03T14:17:51;14.70;1.00
7894;DHT22;51343;51.396;6.656;2023-04-03T14:22:49;15.20;1.00
7894;DHT22;51343;51.396;6.656;2023-04-03T14:25:22;15.70;1.00
7894;DHT22;51343;51.396;6.656;2023-04-03T14:27:55;15.40;1.00
7894;DHT22;51343;51.396;6.656;2023-04-03T14:33:05;14.80;1.00
7894;DHT22;51343;51.396;6.656;2023-04-03T14:35:37;14.50;1.00
7894;DHT22;51343;51.396;6.656;2023-04-03T14:38:05;14.40;1.00
7894;DHT22;51343;51.396;6.656;2023-04-03T14:40:34;14.60;1.00
7894;DHT22;51343;51.396;6.656;2023-04-03T14:43:03;14.90;1.00
7894;DHT22;51343;51.396;6.656;2023-04-03T14:45:31;14.70;1.00
7894;DHT22;51343;51.396;6.656;2023-04-03T14:47:58;14.70;1.00
7894;DHT22;51343;51.396;6.656;2023-04-03T14:50:31;14.60;1.00
7894;DHT22;51343;51.396;6.656;2023-04-03T14:53:00;15.00;1.00
7894;DHT22;51343;51.396;6.656;2023-04-03T14:55:26;14.70;1.00
7894;DHT22;51343;51.396;6.656;2023-04-03T14:57:53;15.10;1.00
7894;DHT22;51343;51.396;6.656;2023-04-03T15:00:26;14.80;1.00
7894;DHT22;51343;51.396;6.656;2023-04-03T15:06:22;13.80;1.00
7894;DHT22;51343;51.396;6.656;2023-04-03T15:08:54;13.90;1.00
7894;DHT22;51343;51.396;6.656;2023-04-03T15:11:25;13.80;1.00
7894;DHT22;51343;51.396;6.656;2023-04-03T15:13:56;13.50;1.00
7894;DHT22;51343;51.396;6.656;2023-04-03T15:16:25;13.30;1.00
7894;DHT22;51343;51.396;6.656;2023-04-03T15:18:53;13.20;1.00
7894;DHT22;51343;51.396;6.656;2023-04-03T15:21:23;13.60;1.00
7894;DHT22;51343;51.396;6.656;2023-04-03T15:23:50;13.30;1.00
7894;DHT22;51343;51.396;6.656;2023-04-03T15:26:18;12.90;1.00
7894;DHT22;51343;51.396;6.656;2023-04-03T15:28:57;12.70;1.00
7894;DHT22;51343;51.396;6.656;2023-04-03T15:31:26;12.70;1.00
7894;DHT22;51343;51.396;6.656;2023-04-03T15:34:00;12.80;1.00
7894;DHT22;51343;51.396;6.656;2023-04-03T15:36:35;12.60;1.00
7894;DHT22;51343;51.396;6.656;2023-04-03T15:39:10;12.70;1.00
7894;DHT22;51343;51.396;6.656;2023-04-03T15:44:22;12.00;1.00
7894;DHT22;51343;51.396;6.656;2023-04-03T15:47:01;11.80;1.00
7894;DHT22;51343;51.396;6.656;2023-04-03T15:52:48;11.70;1.00
7894;DHT22;51343;51.396;6.656;2023-04-03T15:58:08;11.10;1.00
7894;DHT22;51343;51.396;6.656;2023-04-03T16:06:34;9.90;1.00
7894;DHT22;51343;51.396;6.656;2023-04-03T16:12:11;9.60;1.00
7894;DHT22;51343;51.396;6.656;2023-04-03T16:17:40;9.20;1.00
7894;DHT22;51343;51.396;6.656;2023-04-03T16:23:10;9.10;1.00
7894;DHT22;51343;51.396;6.656;2023-04-03T16:28:42;8.80;1.00
7894;DHT22;51343;51.396;6.656;2023-04-03T16:34:12;8.70;1.00
7894;DHT22;51343;51.396;6.656;2023-04-03T16:36:53;8.70;1.00
7894;DHT22;51343;51.396;6.656;2023-04-03T16:42:22;8.60;1.00
7894;DHT22;51343;51.396;6.656;2023-04-03T16:44:50;8.50;1.00
7894;DHT22;51343;51.396;6.656;2023-04-03T16:50:20;8.40;1.00
7894;DHT22;51343;51.396;6.656;2023-04-03T16:55:50;8.30;1.00
7894;DHT22;51343;51.396;6.656;2023-04-03T16:58:17;8.30;1.00
7894;DHT22;51343;51.396;6.656;2023-04-03T17:03:51;8.10;1.00
7894;DHT22;51343;51.396;6.656;2023-04-03T17:09:01;8.10;1.00
7894;DHT22;51343;51.396;6.656;2023-04-03T17:11:32;8.00;1.00
7894;DHT22;51343;51.396;6.656;2023-04-03T17:17:05;7.90;1.00
7894;DHT22;51343;51.396;6.656;2023-04-03T17:19:37;7.80;1.00
7894;DHT22;51343;51.396;6.656;2023-04-03T17:22:08;7.70;1.00
7894;DHT22;51343;51.396;6.656;2023-04-03T17:24:36;7.60;1.00
7894;DHT22;51343;51.396;6.656;2023-04-03T17:27:05;7.60;1.00
7894;DHT22;51343;51.396;6.656;2023-04-03T17:29:31;7.50;1.00
7894;DHT22;51343;51.396;6.656;2023-04-03T17:31:59;7.50;1.00
7894;DHT22;51343;51.396;6.656;2023-04-03T17:34:26;7.40;1.00
7894;DHT22;51343;51.396;6.656;2023-04-03T17:37:00;7.40;1.00
7894;DHT22;51343;51.396;6.656;2023-04-03T17:39:30;7.40;1.00
7894;DHT22;51343;51.396;6.656;2023-04-03T17:42:03;7.30;1.00
7894;DHT22;51343;51.396;6.656;2023-04-03T17:44:32;7.30;1.00
7894;DHT22;51343;51.396;6.656;2023-04-03T17:47:01;7.20;1.00
7894;DHT22;51343;51.396;6.656;2023-04-03T17:52:30;7.10;1.00
7894;DHT22;51343;51.396;6.656;2023-04-03T18:01:08;6.90;99.90
7894;DHT22;51343;51.396;6.656;2023-04-03T18:03:37;6.90;1.00
7894;DHT22;51343;51.396;6.656;2023-04-03T18:06:14;6.90;99.90
7894;DHT22;51343;51.396;6.656;2023-04-03T18:08:52;6.80;99.90
7894;DHT22;51343;51.396;6.656;2023-04-03T18:11:20;6.70;99.90
7894;DHT22;51343;51.396;6.656;2023-04-03T18:13:57;6.70;99.90
7894;DHT22;51343;51.396;6.656;2023-04-03T18:16:46;6.70;99.90
7894;DHT22;51343;51.396;6.656;2023-04-03T18:19:29;6.60;99.90
7894;DHT22;51343;51.396;6.656;2023-04-03T18:21:57;6.60;99.90
7894;DHT22;51343;51.396;6.656;2023-04-03T18:24:29;6.50;99.90
7894;DHT22;51343;51.396;6.656;2023-04-03T18:30:05;6.40;99.90
7894;DHT22;51343;51.396;6.656;2023-04-03T18:32:41;6.40;99.90
7894;DHT22;51343;51.396;6.656;2023-04-03T18:35:11;6.40;99.90
7894;DHT22;51343;51.396;6.656;2023-04-03T18:37:39;6.40;99.90
7894;DHT22;51343;51.396;6.656;2023-04-03T18:42:58;6.30;99.90
7894;DHT22;51343;51.396;6.656;2023-04-03T18:45:26;6.20;99.90
7894;DHT22;51343;51.396;6.656;2023-04-03T18:47:54;6.20;99.90
7894;DHT22;51343;51.396;6.656;2023-04-03T18:50:21;6.20;99.90
7894;DHT22;51343;51.396;6.656;2023-04-03T18:52:50;6.10;99.90
7894;DHT22;51343;51.396;6.656;2023-04-03T18:55:18;6.10;1.00
7894;DHT22;51343;51.396;6.656;2023-04-03T18:58:01;6.00;1.00
7894;DHT22;51343;51.396;6.656;2023-04-03T19:00:42;6.00;1.00
7894;DHT22;51343;51.396;6.656;2023-04-03T19:03:17;6.00;1.00
7894;DHT22;51343;51.396;6.656;2023-04-03T19:05:44;5.80;1.00
7894;DHT22;51343;51.396;6.656;2023-04-03T19:08:13;5.80;1.00
7894;DHT22;51343;51.396;6.656;2023-04-03T19:10:58;5.80;1.00
7894;DHT22;51343;51.396;6.656;2023-04-03T19:13:29;5.80;1.00
7894;DHT22;51343;51.396;6.656;2023-04-03T19:19:00;5.60;1.00
7894;DHT22;51343;51.396;6.656;2023-04-03T19:21:27;5.60;1.00
7894;DHT22;51343;51.396;6.656;2023-04-03T19:24:04;5.50;1.00
7894;DHT22;51343;51.396;6.656;2023-04-03T19:26:37;5.40;1.00
7894;DHT22;51343;51.396;6.656;2023-04-03T19:29:12;5.40;1.00
7894;DHT22;51343;51.396;6.656;2023-04-03T19:31:47;5.30;1.00
7894;DHT22;51343;51.396;6.656;2023-04-03T19:34:25;5.30;1.00
7894;DHT22;51343;51.396;6.656;2023-04-03T19:36:53;5.40;1.00
7894;DHT22;51343;51.396;6.656;2023-04-03T19:39:28;5.30;1.00
7894;DHT22;51343;51.396;6.656;2023-04-03T19:42:07;5.30;1.00
7894;DHT22;51343;51.396;6.656;2023-04-03T19:44:36;5.20;1.00
7894;DHT22;51343;51.396;6.656;2023-04-03T19:47:07;5.20;1.00
7894;DHT22;51343;51.396;6.656;2023-04-03T19:52:44;5.10;1.00
7894;DHT22;51343;51.396;6.656;2023-04-03T19:55:13;5.10;1.00
7894;DHT22;51343;51.396;6.656;2023-04-03T19:57:46;5.00;1.00
7894;DHT22;51343;51.396;6.656;2023-04-03T20:02:47;4.90;1.00
7894;DHT22;51343;51.396;6.656;2023-04-03T20:05:14;4.90;1.00
7894;DHT22;51343;51.396;6.656;2023-04-03T20:07:43;4.90;1.00
7894;DHT22;51343;51.396;6.656;2023-04-03T20:10:15;4.80;1.00
7894;DHT22;51343;51.396;6.656;2023-04-03T20:12:44;4.80;1.00
7894;DHT22;51343;51.396;6.656;2023-04-03T20:15:12;4.80;1.00
7894;DHT22;51343;51.396;6.656;2023-04-03T20:17:42;4.80;1.00
7894;DHT22;51343;51.396;6.656;2023-04-03T20:22:51;4.90;1.00
7894;DHT22;51343;51.396;6.656;2023-04-03T20:25:21;4.90;1.00
7894;DHT22;51343;51.396;6.656;2023-04-03T20:27:49;4.80;1.00
7894;DHT22;51343;51.396;6.656;2023-04-03T20:30:18;4.80;1.00
7894;DHT22;51343;51.396;6.656;2023-04-03T20:32:49;4.80;1.00
7894;DHT22;51343;51.396;6.656;2023-04-03T20:35:16;4.70;1.00
7894;DHT22;51343;51.396;6.656;2023-04-03T20:37:48;4.70;1.00
7894;DHT22;51343;51.396;6.656;2023-04-03T20:40:15;4.70;1.00
7894;DHT22;51343;51.396;6.656;2023-04-03T20:42:44;4.70;1.00
7894;DHT22;51343;51.396;6.656;2023-04-03T20:45:14;4.60;1.00
7894;DHT22;51343;51.396;6.656;2023-04-03T20:47:47;4.50;1.00
7894;DHT22;51343;51.396;6.656;2023-04-03T20:52:59;4.40;1.00
7894;DHT22;51343;51.396;6.656;2023-04-03T20:55:27;4.40;1.00
7894;DHT22;51343;51.396;6.656;2023-04-03T20:58:02;4.30;1.00
7894;DHT22;51343;51.396;6.656;2023-04-03T21:00:34;4.30;1.00
7894;DHT22;51343;51.396;6.656;2023-04-03T21:39:46;3.30;1.00
7894;DHT22;51343;51.396;6.656;2023-04-03T21:42:13;3.10;1.00
7894;DHT22;51343;51.396;6.656;2023-04-03T21:47:15;3.00;1.00
7894;DHT22;51343;51.396;6.656;2023-04-03T21:49:45;3.00;1.00
7894;DHT22;51343;51.396;6.656;2023-04-03T21:59:56;2.80;1.00
7894;DHT22;51343;51.396;6.656;2023-04-03T22:02:25;2.80;1.00
7894;DHT22;51343;51.396;6.656;2023-04-03T22:04:53;2.70;1.00
7894;DHT22;51343;51.396;6.656;2023-04-03T22:07:21;2.60;1.00
7894;DHT22;51343;51.396;6.656;2023-04-03T22:12:23;2.50;1.00
7894;DHT22;51343;51.396;6.656;2023-04-03T22:14:50;2.40;1.00